Hlavní strana
METAR-TAF:

METAR-TAF

Letiště :

Aktobe, Kazachstán

zeměpisná šířka: 50-17N, zeměpisná délka: 057-09E, výška: 227 m

Aktuální stav počasí

Zpráva byla vytvořena před 44 minutami, v 03:30 UTC
Západní vítr 4 kt, proměnlivý mezi západojihozápadním a severozápadním
Teplota 4°C
Vlhkost vzduchu 75%
Tlak 1018 hPa
Viditelnost 10 km a více
Žádná oblačnost pod 1500 m, nevyskytují se cumulonimby.

METAR: UATT 050330Z 28002MPS 250V310 CAVOK 04/M00 Q1018 R31/CLRD70 NOSIG RMK QFE743/0991

Čas: 09:14 (04:14 UTC)

Předpověď počasí

Zpráva byla vytvořena před 5 hodinami a 14 minutami, v 23:00 UTC
Předpověď platná od 05 v 00 UTC do 05 v 24 UTC
Západní vítr 16 kt
Viditelnost 10 km a více
Oblačno až skoro zataženo ve výšce 1100 ft
Dočasný
od 05 v 00 UTC do 05 v 06 UTC
Viditelnost: 3100 m
Oblačno až skoro zataženo ve výšce 400 ft
kouřmo
Změna
od 05 v 15 UTC do 05 v 17 UTC
Jihozápadní vítr 14 kt

TAF: UATT 042300Z 0500/0524 28008MPS 9999 BKN011 TX17/0512Z TN01/0502Z TEMPO 0500/0506 3100 BR BKN004 BECMG 0515/0517 22007MPS

Stav a předpovědi počasí z více než 4 000 letišť (zprávy METAR a TAF).

Červené a žluté tečky na mapě představují dostupné meteorologické stanice.

Když kurzor umístíte na tečku, zobrazí se název stanice.

Pak kliknutím zobrazíte stav a předpověď počasí.

Chcete-li změnit mapu, kliknutím na zelené tlačítko se znaménkem +mapu přiblížíte, kliknutím na zelené tlačítko se znaménkem – mapu oddálíte a kliknutím na zelené šipky přejdete na sousední mapy.


METAR-TAF: